Time;durP1;ratioP1;P1;durP2;ratioP2;P2;SDS_P1;SDS_P2;PMS_P1;PMS_P2;Temp;Humidity;BMP_temperature;BMP_pressure;BME280_temperature;BME280_humidity;BME280_pressure;Samples;Min_cycle;Max_cycle;Signal;HPM_P1;HPM_P2
2022/06/14 00:00:55;;;;;;;5.18;1.83;;;17.00;75.30;;;;;;5070796;28;20032;-67
2022/06/14 00:03:57;;;;;;;5.20;1.50;;;16.90;74.90;;;;;;5061301;28;20025;-65
2022/06/14 00:06:25;;;;;;;4.18;1.27;;;16.90;74.80;;;;;;5037892;28;20072;-67
2022/06/14 00:08:51;;;;;;;3.80;1.52;;;16.80;74.60;;;;;;5057078;28;20041;-65
2022/06/14 00:11:21;;;;;;;2.47;1.25;;;16.80;74.50;;;;;;5056575;28;20087;-66
2022/06/14 00:13:48;;;;;;;5.03;1.60;;;16.70;74.60;;;;;;5057944;28;20032;-66
2022/06/14 00:16:14;;;;;;;3.42;2.10;;;16.70;74.70;;;;;;5074958;28;20123;-66
2022/06/14 00:18:40;;;;;;;4.95;1.63;;;16.60;74.70;;;;;;5055858;28;20029;-66
2022/06/14 00:21:06;;;;;;;5.93;1.80;;;16.50;74.50;;;;;;5072379;28;20035;-66
2022/06/14 00:23:32;;;;;;;4.25;1.65;;;16.40;74.40;;;;;;5072897;28;20056;-66
2022/06/14 00:25:59;;;;;;;4.75;1.75;;;16.40;74.50;;;;;;5071465;28;20031;-66
2022/06/14 00:28:27;;;;;;;5.15;1.73;;;16.30;74.50;;;;;;5069452;28;20033;-66
2022/06/14 00:30:55;;;;;;;4.00;1.65;;;16.30;74.50;;;;;;5067062;28;20204;-66
2022/06/14 00:33:21;;;;;;;3.03;1.63;;;16.30;74.50;;;;;;5057748;28;20741;-66
2022/06/14 00:35:47;;;;;;;6.65;1.52;;;16.30;74.50;;;;;;5059197;28;20032;-66
2022/06/14 00:38:14;;;;;;;3.33;1.60;;;16.20;74.40;;;;;;5069821;28;20025;-65
2022/06/14 00:40:41;;;;;;;3.72;2.03;;;16.20;74.60;;;;;;5070153;28;20051;-65
2022/06/14 00:43:16;;;;;;;3.63;1.60;;;16.10;74.20;;;;;;5066705;28;20028;-66
2022/06/14 00:45:42;;;;;;;5.10;1.60;;;16.10;74.40;;;;;;5070581;28;20112;-66
2022/06/14 00:48:14;;;;;;;4.07;1.50;;;16.00;74.20;;;;;;5062538;28;20428;-66
2022/06/14 00:50:54;;;;;;;3.75;1.52;;;16.00;74.20;;;;;;5070481;28;20071;-66
2022/06/14 00:53:23;;;;;;;4.47;1.75;;;15.90;74.30;;;;;;5068943;28;20028;-66
2022/06/14 00:56:06;;;;;;;2.70;1.50;;;15.90;74.00;;;;;;5059628;28;20052;-66
2022/06/14 00:58:33;;;;;;;2.65;1.52;;;15.90;74.20;;;;;;5069897;28;20028;-65
2022/06/14 01:01:13;;;;;;;2.28;1.23;;;15.80;74.10;;;;;;5070472;28;20137;-66
2022/06/14 01:03:48;;;;;;;4.40;1.50;;;15.80;74.00;;;;;;5055752;28;20081;-66
2022/06/14 01:06:51;;;;;;;3.03;1.58;;;15.70;73.90;;;;;;5054514;28;20029;-66
2022/06/14 01:09:46;;;;;;;3.65;1.20;;;15.70;73.80;;;;;;5029895;28;20042;-66
2022/06/14 01:12:16;;;;;;;4.25;1.88;;;15.60;74.30;;;;;;5052014;28;20029;-66
2022/06/14 01:15:03;;;;;;;5.38;1.50;;;15.50;74.20;;;;;;5050748;28;20152;-66
2022/06/14 01:17:43;;;;;;;4.00;1.33;;;15.40;74.20;;;;;;5052289;28;20029;-66
2022/06/14 01:20:10;;;;;;;4.10;1.60;;;15.40;74.30;;;;;;5053291;28;20720;-66
2022/06/14 01:22:37;;;;;;;3.75;1.30;;;15.40;74.30;;;;;;5044073;28;20044;-65
2022/06/14 01:25:03;;;;;;;4.10;1.55;;;15.30;74.80;;;;;;5046095;28;20449;-65
2022/06/14 01:27:31;;;;;;;2.63;1.58;;;15.30;74.40;;;;;;5048809;28;20405;-65
2022/06/14 01:30:12;;;;;;;3.40;1.77;;;15.30;74.30;;;;;;5039067;28;20025;-66
2022/06/14 01:32:58;;;;;;;3.90;1.45;;;15.20;74.40;;;;;;5042267;28;20037;-66
2022/06/14 01:35:26;;;;;;;3.35;1.48;;;15.10;74.40;;;;;;5050266;28;20427;-66
2022/06/14 01:37:54;;;;;;;6.68;1.90;;;15.10;75.40;;;;;;5051438;28;20033;-66
2022/06/14 01:40:27;;;;;;;5.97;1.83;;;15.10;74.80;;;;;;5048502;28;20025;-66
2022/06/14 01:43:31;;;;;;;4.20;2.08;;;15.00;75.00;;;;;;5051623;28;20120;-67
2022/06/14 01:46:21;;;;;;;3.67;1.70;;;15.00;75.60;;;;;;5048570;28;20024;-66
2022/06/14 01:52:36;;;;;;;3.33;1.38;;;14.90;75.60;;;;;;5086156;28;20099;-67
2022/06/14 01:55:20;;;;;;;3.58;1.58;;;14.90;75.50;;;;;;5091375;28;20407;-67
2022/06/14 01:58:01;;;;;;;2.75;1.48;;;14.90;75.80;;;;;;5061346;28;20098;-66
2022/06/14 02:00:32;;;;;;;3.47;1.60;;;14.80;75.80;;;;;;5050056;28;20025;-67
2022/06/14 02:06:08;;;;;;;3.33;1.45;;;14.80;76.60;;;;;;5038062;28;20388;-66
2022/06/14 02:08:43;;;;;;;5.25;1.65;;;14.70;76.40;;;;;;5063147;28;20116;-67
2022/06/14 02:11:19;;;;;;;3.58;1.38;;;14.70;76.40;;;;;;5064886;28;20376;-65
2022/06/14 02:13:49;;;;;;;3.67;1.67;;;14.70;77.00;;;;;;5067674;28;20025;-66
2022/06/14 02:16:29;;;;;;;3.53;1.48;;;14.60;77.30;;;;;;5062268;28;20037;-66
2022/06/14 02:19:20;;;;;;;4.85;1.80;;;14.60;77.30;;;;;;5069751;28;20021;-67
2022/06/14 02:21:55;;;;;;;3.53;1.55;;;14.60;77.50;;;;;;5067367;28;20369;-67
2022/06/14 02:24:31;;;;;;;4.65;1.48;;;14.60;77.50;;;;;;5061748;28;20501;-67
2022/06/14 02:27:15;;;;;;;4.88;1.88;;;14.60;77.70;;;;;;5068183;28;20381;-67
2022/06/14 02:29:49;;;;;;;3.60;1.27;;;14.60;77.60;;;;;;5053594;28;20426;-66
2022/06/14 02:32:24;;;;;;;5.82;1.45;;;14.60;77.50;;;;;;5057988;28;20349;-66
2022/06/14 02:34:57;;;;;;;5.25;1.73;;;14.70;77.60;;;;;;5069445;28;20036;-66
2022/06/14 02:37:46;;;;;;;3.05;1.67;;;14.60;77.60;;;;;;5057645;28;20512;-67
2022/06/14 02:40:17;;;;;;;3.10;1.70;;;14.70;77.80;;;;;;5064595;28;20059;-65
2022/06/14 02:42:56;;;;;;;2.45;1.45;;;14.70;77.90;;;;;;5062499;28;20576;-65
2022/06/14 02:45:44;;;;;;;5.43;2.00;;;14.70;77.80;;;;;;5064871;28;20035;-65
2022/06/14 02:48:30;;;;;;;2.47;1.75;;;14.70;77.90;;;;;;5056582;28;20492;-66
2022/06/14 02:51:06;;;;;;;7.82;2.40;;;14.70;78.10;;;;;;5052350;28;20637;-65
2022/06/14 02:53:31;;;;;;;6.97;2.15;;;14.70;78.10;;;;;;5052349;28;20485;-65
2022/06/14 02:56:45;;;;;;;5.93;1.60;;;14.70;78.30;;;;;;5067269;28;20047;-65
2022/06/14 02:59:21;;;;;;;6.90;2.10;;;14.70;79.10;;;;;;5044917;28;20540;-67
2022/06/14 03:01:53;;;;;;;5.80;2.10;;;14.70;78.70;;;;;;5064754;28;20078;-66
2022/06/14 03:04:26;;;;;;;6.93;2.00;;;14.80;78.80;;;;;;5058292;28;20032;-66
2022/06/14 03:07:24;;;;;;;5.57;2.10;;;14.80;78.80;;;;;;5065357;28;20097;-65
2022/06/14 03:09:51;;;;;;;5.53;2.08;;;14.80;78.90;;;;;;5065157;28;20131;-64
2022/06/14 03:12:29;;;;;;;6.53;2.53;;;14.80;78.90;;;;;;5058876;28;20463;-64
2022/06/14 03:15:14;;;;;;;8.75;1.85;;;14.80;78.90;;;;;;5064604;28;20033;-64
2022/06/14 03:17:44;;;;;;;;;;;14.90;79.40;;;;;;5060503;28;20502;-64
2022/06/14 03:20:22;;;;;;;4.25;2.00;;;14.90;78.60;;;;;;5054019;28;19920;-64
2022/06/14 03:23:00;;;;;;;5.25;1.98;;;14.90;79.10;;;;;;5055621;28;20498;-64
2022/06/14 03:25:39;;;;;;;4.05;2.10;;;15.00;79.10;;;;;;5067418;28;20044;-64
2022/06/14 03:28:06;;;;;;;6.45;2.00;;;15.00;79.10;;;;;;5059143;28;20041;-64
2022/06/14 03:30:34;;;;;;;4.60;2.13;;;15.00;79.20;;;;;;5055385;28;20031;-64
2022/06/14 03:33:03;;;;;;;5.05;2.20;;;15.10;79.40;;;;;;5068993;28;20075;-64
2022/06/14 03:35:44;;;;;;;4.53;2.25;;;15.10;79.50;;;;;;5068859;28;20035;-64
2022/06/14 03:38:25;;;;;;;6.82;3.03;;;15.10;79.20;;;;;;5068959;28;20500;-64
2022/06/14 03:40:51;;;;;;;4.85;2.03;;;15.10;79.20;;;;;;5067979;28;20127;-65
2022/06/14 03:43:17;;;;;;;6.00;1.90;;;15.20;79.10;;;;;;5064449;28;20111;-65
2022/06/14 03:46:25;;;;;;;6.85;1.90;;;15.20;79.00;;;;;;5068302;28;20137;-65
2022/06/14 03:48:56;;;;;;;5.10;2.20;;;15.20;79.30;;;;;;5055838;28;20487;-65
2022/06/14 03:51:42;;;;;;;9.90;2.70;;;15.20;79.00;;;;;;5055892;28;20033;-65
2022/06/14 03:54:33;;;;;;;8.60;2.22;;;15.20;79.00;;;;;;5070376;28;20380;-65
2022/06/14 03:57:26;;;;;;;5.10;2.28;;;15.20;79.10;;;;;;5085950;28;20044;-65
2022/06/14 04:00:17;;;;;;;9.25;2.97;;;15.20;79.30;;;;;;5055650;28;20044;-64
2022/06/14 04:03:03;;;;;;;6.90;1.85;;;15.10;79.20;;;;;;5064319;28;20033;-64
2022/06/14 04:05:59;;;;;;;5.32;1.67;;;15.20;80.00;;;;;;5071717;28;20064;-65
2022/06/14 04:08:27;;;;;;;5.35;2.17;;;15.20;79.60;;;;;;5071179;28;20056;-65
2022/06/14 04:11:24;;;;;;;3.58;1.75;;;15.20;79.70;;;;;;5073521;28;20111;-65
2022/06/14 04:13:52;;;;;;;3.28;1.90;;;15.30;79.50;;;;;;5056625;28;20033;-65
2022/06/14 04:16:29;;;;;;;6.72;2.03;;;15.30;79.50;;;;;;5070302;28;20135;-65
2022/06/14 04:19:09;;;;;;;5.40;1.63;;;15.40;79.40;;;;;;5071292;28;20025;-65
2022/06/14 04:21:57;;;;;;;5.78;2.08;;;15.40;79.50;;;;;;5073146;28;20036;-64
2022/06/14 04:24:25;;;;;;;7.03;2.30;;;15.40;79.20;;;;;;5074435;28;20159;-65
2022/06/14 04:27:05;;;;;;;4.80;2.03;;;15.40;79.10;;;;;;5071877;28;20115;-65
2022/06/14 04:29:53;;;;;;;6.10;1.95;;;15.40;78.90;;;;;;5054614;28;20029;-64
2022/06/14 04:32:33;;;;;;;6.72;1.70;;;15.40;79.30;;;;;;5054989;28;20056;-64
2022/06/14 04:35:11;;;;;;;6.00;2.22;;;15.40;79.50;;;;;;5068775;28;20038;-65
2022/06/14 04:37:44;;;;;;;7.45;2.28;;;15.50;79.30;;;;;;5063449;28;20039;-65
2022/06/14 04:40:16;;;;;;;4.75;2.05;;;15.50;79.30;;;;;;5067342;28;20029;-64
2022/06/14 04:42:59;;;;;;;6.47;2.25;;;15.60;79.50;;;;;;5064747;28;20025;-65
2022/06/14 04:45:43;;;;;;;10.45;2.42;;;15.60;79.40;;;;;;5058123;28;20086;-65
2022/06/14 04:48:20;;;;;;;7.05;2.13;;;15.70;79.20;;;;;;5072914;28;20086;-65
2022/06/14 04:50:55;;;;;;;7.80;2.38;;;15.80;79.40;;;;;;5082312;28;20036;-65
2022/06/14 04:53:28;;;;;;;4.32;1.92;;;15.80;79.20;;;;;;5068105;28;20036;-65
2022/06/14 04:56:01;;;;;;;4.55;2.00;;;15.90;78.80;;;;;;5071375;28;20044;-65
2022/06/14 04:58:36;;;;;;;6.38;2.38;;;15.90;78.30;;;;;;5071628;28;20035;-66
2022/06/14 05:01:11;;;;;;;7.95;2.22;;;15.90;77.90;;;;;;5069943;28;20032;-66
2022/06/14 05:03:45;;;;;;;7.47;2.83;;;16.00;78.00;;;;;;5056135;28;20112;-65
2022/06/14 05:06:24;;;;;;;5.05;1.88;;;16.00;77.70;;;;;;5055874;28;20044;-65
2022/06/14 05:09:04;;;;;;;7.38;2.28;;;16.00;76.90;;;;;;5068877;28;20041;-66
2022/06/14 05:11:49;;;;;;;6.13;2.83;;;15.90;77.60;;;;;;5073637;28;20032;-65
2022/06/14 05:14:27;;;;;;;5.55;2.10;;;16.00;77.50;;;;;;5070854;28;20119;-65
2022/06/14 05:16:59;;;;;;;4.93;2.58;;;15.90;77.00;;;;;;5062390;28;20072;-65
2022/06/14 05:19:55;;;;;;;7.40;2.42;;;16.00;76.90;;;;;;5053858;28;20021;-65
2022/06/14 05:22:45;;;;;;;9.90;3.58;;;16.00;76.80;;;;;;5064576;28;20027;-66
2022/06/14 05:25:12;;;;;;;4.93;2.15;;;16.00;76.90;;;;;;5072489;28;20036;-65
2022/06/14 05:27:55;;;;;;;5.40;2.13;;;16.00;76.70;;;;;;5067439;28;20147;-65
2022/06/14 05:30:24;;;;;;;8.68;2.30;;;16.00;76.40;;;;;;5053804;28;20021;-64
2022/06/14 05:33:14;;;;;;;8.05;2.10;;;16.00;76.40;;;;;;5064181;28;20059;-64
2022/06/14 05:35:55;;;;;;;5.90;2.50;;;16.10;76.60;;;;;;5073672;28;20060;-65
2022/06/14 05:38:47;;;;;;;6.72;2.22;;;16.10;76.60;;;;;;5058251;28;20040;-65
2022/06/14 05:41:39;;;;;;;8.25;2.25;;;16.20;77.10;;;;;;5061110;28;20113;-64
2022/06/14 05:44:10;;;;;;;4.80;2.28;;;16.30;76.60;;;;;;5064761;28;20028;-64
2022/06/14 05:46:52;;;;;;;9.52;2.53;;;16.40;76.50;;;;;;5072422;28;20050;-65
2022/06/14 05:49:22;;;;;;;6.40;1.63;;;16.50;76.30;;;;;;5057985;28;20146;-65
2022/06/14 05:52:00;;;;;;;8.15;2.55;;;16.60;76.40;;;;;;5071836;28;20017;-65
2022/06/14 05:54:52;;;;;;;9.27;2.63;;;16.70;76.20;;;;;;5071963;28;20032;-65
2022/06/14 05:57:30;;;;;;;11.90;3.17;;;16.70;75.90;;;;;;5065595;28;20140;-65
2022/06/14 06:00:28;;;;;;;12.60;2.65;;;16.70;75.80;;;;;;5073003;28;20102;-65
2022/06/14 06:03:12;;;;;;;6.50;2.42;;;16.70;74.70;;;;;;5057547;28;20366;-65
2022/06/14 06:05:50;;;;;;;8.43;2.05;;;16.80;75.40;;;;;;5053228;28;20037;-65
2022/06/14 06:08:32;;;;;;;7.75;2.50;;;16.80;75.30;;;;;;5061644;28;20056;-65
2022/06/14 06:11:06;;;;;;;8.07;2.58;;;16.80;74.90;;;;;;5053144;28;20033;-65
2022/06/14 06:13:45;;;;;;;8.00;2.13;;;16.70;75.10;;;;;;5064605;28;20028;-65
2022/06/14 06:16:24;;;;;;;6.50;2.28;;;16.70;75.10;;;;;;5053649;28;20040;-65
2022/06/14 06:18:58;;;;;;;14.40;2.55;;;16.70;75.20;;;;;;5070439;28;20028;-65
2022/06/14 06:22:06;;;;;;;7.20;2.00;;;16.70;75.40;;;;;;5069070;28;20033;-65
2022/06/14 06:24:38;;;;;;;10.18;2.75;;;16.70;75.20;;;;;;5010266;28;20083;-65
2022/06/14 06:27:08;;;;;;;5.78;2.05;;;16.80;75.40;;;;;;5051735;28;20037;-65
2022/06/14 06:29:52;;;;;;;5.40;2.65;;;17.00;75.60;;;;;;5071637;28;20028;-65
2022/06/14 06:32:20;;;;;;;11.25;2.30;;;17.10;75.20;;;;;;5068539;28;20101;-65
2022/06/14 06:34:47;;;;;;;10.13;2.00;;;17.30;75.60;;;;;;5071030;28;20381;-65
2022/06/14 06:37:19;;;;;;;3.90;1.90;;;17.40;74.30;;;;;;5057039;28;20045;-65
2022/06/14 06:39:58;;;;;;;6.28;2.00;;;17.50;73.50;;;;;;5051161;28;20072;-65
2022/06/14 06:42:41;;;;;;;6.22;2.90;;;17.50;73.50;;;;;;5058965;28;20028;-65
2022/06/14 06:45:19;;;;;;;8.65;2.22;;;17.60;72.30;;;;;;5072273;28;20028;-65
2022/06/14 06:47:47;;;;;;;6.30;2.28;;;17.60;71.90;;;;;;5066269;28;20036;-66
2022/06/14 06:50:25;;;;;;;6.53;2.42;;;17.60;72.30;;;;;;5068157;28;20062;-66
2022/06/14 06:53:10;;;;;;;6.63;2.20;;;17.70;73.10;;;;;;5069979;28;20067;-65
2022/06/14 06:56:13;;;;;;;8.95;1.95;;;17.90;72.70;;;;;;5057244;28;20033;-64
2022/06/14 06:58:50;;;;;;;8.38;2.90;;;17.90;72.40;;;;;;5057804;28;20044;-64
2022/06/14 07:01:38;;;;;;;6.45;2.13;;;18.10;72.70;;;;;;5072675;28;20028;-64
2022/06/14 07:05:03;;;;;;;8.52;2.33;;;18.30;72.70;;;;;;5070676;28;20072;-63
2022/06/14 07:07:21;;;;;;;8.38;2.65;;;18.40;72.00;;;;;;5057257;28;20499;-64
2022/06/14 07:09:55;;;;;;;10.00;2.30;;;18.50;71.40;;;;;;5063504;28;20040;-64
2022/06/14 07:12:38;;;;;;;6.47;2.50;;;18.70;71.00;;;;;;5063158;28;20017;-64
2022/06/14 07:15:13;;;;;;;12.30;3.13;;;18.80;70.60;;;;;;5056749;28;20037;-64
2022/06/14 07:17:46;;;;;;;11.35;2.45;;;18.90;69.80;;;;;;5059845;28;20055;-64
2022/06/14 07:20:33;;;;;;;6.60;2.63;;;19.00;70.30;;;;;;5065981;28;20028;-64
2022/06/14 07:23:09;;;;;;;9.30;2.63;;;19.00;69.50;;;;;;5068389;28;20043;-64
2022/06/14 07:25:43;;;;;;;8.13;2.33;;;19.00;69.10;;;;;;5057109;28;20044;-64
2022/06/14 07:28:22;;;;;;;7.28;1.98;;;18.80;68.40;;;;;;5067780;28;20081;-64
2022/06/14 07:30:52;;;;;;;6.70;1.90;;;18.70;68.70;;;;;;5062475;28;20115;-64
2022/06/14 07:33:21;;;;;;;6.95;2.08;;;18.70;68.80;;;;;;5060489;28;20016;-64
2022/06/14 07:36:02;;;;;;;7.97;2.40;;;18.70;68.80;;;;;;5064916;28;20085;-64
2022/06/14 07:38:33;;;;;;;7.22;2.13;;;18.80;68.80;;;;;;5055131;28;20116;-64
2022/06/14 07:41:03;;;;;;;4.70;1.95;;;18.80;67.70;;;;;;5061826;28;20449;-64
2022/06/14 07:44:04;;;;;;;3.95;1.90;;;18.80;68.20;;;;;;5057920;28;20037;-63
2022/06/14 07:46:42;;;;;;;7.38;2.50;;;18.80;69.00;;;;;;5066199;28;20398;-65
2022/06/14 07:49:18;;;;;;;6.40;2.33;;;18.80;67.50;;;;;;5060703;28;20016;-65
2022/06/14 07:51:55;;;;;;;7.88;2.28;;;18.90;67.50;;;;;;5054548;28;20440;-65
2022/06/14 07:54:38;;;;;;;4.65;2.20;;;18.90;67.30;;;;;;5061935;28;20043;-65
2022/06/14 07:57:15;;;;;;;7.50;2.22;;;19.00;67.70;;;;;;5057123;28;20387;-65
2022/06/14 07:59:51;;;;;;;5.57;1.80;;;19.00;66.10;;;;;;5059218;28;20025;-65
2022/06/14 08:02:35;;;;;;;5.68;2.20;;;19.00;66.50;;;;;;5072870;28;20427;-65
2022/06/14 08:05:16;;;;;;;6.85;2.35;;;18.90;66.20;;;;;;5064854;28;20437;-65
2022/06/14 08:07:45;;;;;;;6.63;2.20;;;18.90;65.50;;;;;;5076698;28;20404;-65
2022/06/14 08:10:19;;;;;;;5.10;1.95;;;18.80;66.20;;;;;;5051249;28;20499;-65
2022/06/14 08:12:52;;;;;;;5.13;2.25;;;18.90;67.10;;;;;;5055658;28;20388;-64
2022/06/14 08:15:42;;;;;;;8.00;2.00;;;19.00;67.40;;;;;;5056771;28;20033;-64
2022/06/14 08:18:25;;;;;;;5.90;2.00;;;19.20;66.70;;;;;;5057547;28;20504;-64
2022/06/14 08:21:13;;;;;;;4.25;2.13;;;19.20;65.40;;;;;;5070612;28;20032;-65
2022/06/14 08:24:08;;;;;;;5.43;2.05;;;19.20;64.80;;;;;;5052605;28;20485;-64
2022/06/14 08:26:46;;;;;;;6.47;1.80;;;19.10;65.50;;;;;;5081659;28;20434;-64
2022/06/14 08:29:28;;;;;;;8.00;2.50;;;19.10;64.80;;;;;;5050820;28;20464;-64
2022/06/14 08:32:18;;;;;;;7.78;2.22;;;19.20;64.10;;;;;;5068154;28;20064;-64
2022/06/14 08:34:50;;;;;;;5.53;1.63;;;19.10;63.60;;;;;;5072070;28;20475;-64
2022/06/14 08:37:47;;;;;;;4.40;2.15;;;19.10;63.90;;;;;;5070143;28;20071;-64
2022/06/14 08:40:26;;;;;;;5.47;1.70;;;19.00;63.80;;;;;;5065134;28;20488;-66
2022/06/14 08:42:57;;;;;;;6.60;2.22;;;19.00;64.20;;;;;;5066350;28;20058;-65
2022/06/14 08:46:03;;;;;;;4.97;1.85;;;19.00;64.60;;;;;;5074384;28;20388;-65
2022/06/14 08:48:36;;;;;;;;;;;19.20;64.70;;;;;;5054840;28;20033;-66
2022/06/14 08:51:25;;;;;;;8.02;2.22;;;19.40;64.60;;;;;;5069857;28;19912;-65
2022/06/14 08:54:20;;;;;;;4.60;2.08;;;19.50;63.60;;;;;;5053858;28;20033;-65
2022/06/14 08:57:06;;;;;;;4.40;2.08;;;19.70;63.10;;;;;;5055250;28;20041;-65
2022/06/14 08:59:56;;;;;;;4.25;1.42;;;19.90;63.30;;;;;;5075235;28;20028;-65
2022/06/14 09:02:56;;;;;;;5.05;1.80;;;20.00;61.30;;;;;;5084350;28;20155;-65
2022/06/14 09:05:57;;;;;;;5.00;1.63;;;19.90;60.90;;;;;;5072693;28;20495;-65
2022/06/14 09:08:28;;;;;;;5.30;1.60;;;19.80;61.20;;;;;;5071796;28;20064;-65
2022/06/14 09:11:00;;;;;;;4.72;1.73;;;19.90;60.80;;;;;;5072801;28;20035;-65
2022/06/14 09:13:34;;;;;;;4.93;1.55;;;19.90;61.00;;;;;;5072296;28;20032;-65
2022/06/14 09:16:24;;;;;;;4.45;1.70;;;20.00;61.10;;;;;;5071212;28;20476;-65
2022/06/14 09:18:53;;;;;;;4.10;1.65;;;20.00;60.80;;;;;;5064815;28;20039;-65
2022/06/14 09:21:36;;;;;;;5.68;1.85;;;19.90;59.50;;;;;;5067450;28;20051;-65
2022/06/14 09:24:27;;;;;;;4.70;1.20;;;19.80;59.80;;;;;;5069622;28;20017;-65
2022/06/14 09:27:20;;;;;;;8.07;1.70;;;19.90;60.00;;;;;;5054012;28;20029;-65
2022/06/14 09:29:55;;;;;;;5.05;1.95;;;19.90;59.30;;;;;;5059756;28;20037;-65
2022/06/14 09:35:45;;;;;;;5.82;1.92;;;19.80;58.30;;;;;;5068404;28;19913;-64
2022/06/14 09:38:27;;;;;;;3.10;1.40;;;19.80;58.80;;;;;;5063282;28;20029;-65
2022/06/14 09:41:15;;;;;;;6.90;1.98;;;19.70;58.00;;;;;;5053684;28;20033;-64
2022/06/14 09:43:55;;;;;;;4.65;1.63;;;19.80;57.80;;;;;;5052655;28;20029;-65
2022/06/14 09:46:33;;;;;;;5.57;1.45;;;19.60;57.60;;;;;;5053335;28;20112;-65
2022/06/14 09:49:07;;;;;;;2.65;1.33;;;19.60;58.90;;;;;;5090641;28;20145;-65
2022/06/14 09:51:48;;;;;;;4.60;1.90;;;19.70;60.00;;;;;;5093694;28;20028;-65
2022/06/14 09:54:34;;;;;;;6.22;1.90;;;19.90;60.40;;;;;;5089138;28;20035;-65
2022/06/14 09:57:24;;;;;;;3.58;2.00;;;20.00;61.00;;;;;;5053105;28;20036;-65
2022/06/14 10:00:09;;;;;;;5.80;1.65;;;20.10;60.90;;;;;;5052577;28;20021;-65
2022/06/14 10:02:52;;;;;;;5.50;1.60;;;20.10;60.90;;;;;;5063575;28;20024;-65
2022/06/14 10:05:48;;;;;;;7.70;2.08;;;20.20;61.00;;;;;;5052721;28;20139;-65
2022/06/14 10:08:39;;;;;;;5.30;1.65;;;20.20;60.20;;;;;;5064974;28;20068;-65
2022/06/14 10:11:18;;;;;;;6.40;1.98;;;20.20;60.10;;;;;;5071142;28;20038;-65
2022/06/14 10:14:14;;;;;;;5.05;1.83;;;20.30;60.10;;;;;;5071627;28;20025;-65
2022/06/14 10:16:58;;;;;;;;;;;20.30;59.90;;;;;;5063805;28;20033;-66
2022/06/14 10:19:51;;;;;;;5.00;1.88;;;20.40;60.20;;;;;;5052384;28;19904;-65
2022/06/14 10:22:26;;;;;;;7.38;2.00;;;20.50;59.80;;;;;;5052477;28;20057;-66
2022/06/14 10:25:31;;;;;;;5.63;1.85;;;20.50;59.60;;;;;;5052327;28;20040;-66
2022/06/14 10:28:29;;;;;;;8.27;2.30;;;20.50;58.90;;;;;;5077810;28;20461;-66
2022/06/14 10:31:09;;;;;;;4.38;2.45;;;20.70;59.40;;;;;;5052501;28;20112;-66
2022/06/14 10:34:07;;;;;;;4.03;1.80;;;20.70;58.10;;;;;;5052254;28;20084;-65
2022/06/14 10:36:52;;;;;;;6.25;1.67;;;20.60;58.20;;;;;;5063257;28;20174;-65
2022/06/14 10:39:40;;;;;;;6.00;2.03;;;20.70;58.20;;;;;;5066282;28;20029;-66
2022/06/14 10:42:34;;;;;;;3.70;1.98;;;20.80;57.50;;;;;;5067131;28;20027;-66
2022/06/14 10:45:13;;;;;;;4.20;1.85;;;20.80;58.00;;;;;;5059468;28;20031;-64
2022/06/14 10:48:10;;;;;;;5.68;1.67;;;21.00;58.20;;;;;;5072009;28;20028;-65
2022/06/14 10:51:00;;;;;;;2.17;1.17;;;21.10;58.20;;;;;;5063985;28;20063;-65
2022/06/14 10:53:50;;;;;;;5.72;2.20;;;21.30;58.60;;;;;;5064616;28;20039;-65
2022/06/14 10:56:28;;;;;;;6.30;2.00;;;21.40;58.30;;;;;;5059705;28;20555;-65
2022/06/14 10:59:03;;;;;;;5.47;1.85;;;21.40;58.30;;;;;;5055991;28;20036;-65
2022/06/14 11:01:47;;;;;;;4.00;1.75;;;21.50;57.90;;;;;;5064397;28;20075;-65
2022/06/14 11:04:30;;;;;;;5.40;1.52;;;21.70;57.10;;;;;;5063789;28;20058;-65
2022/06/14 11:07:01;;;;;;;4.80;1.85;;;21.90;57.50;;;;;;5049038;28;20029;-65
2022/06/14 11:09:39;;;;;;;4.95;1.70;;;22.00;56.80;;;;;;5048118;28;20048;-65
2022/06/14 11:12:04;;;;;;;4.20;1.63;;;22.00;56.50;;;;;;5048264;28;20031;-65
2022/06/14 11:14:44;;;;;;;4.20;1.73;;;22.10;55.80;;;;;;5046995;28;20507;-65
2022/06/14 11:17:28;;;;;;;2.22;1.27;;;22.00;55.00;;;;;;5048168;28;20044;-65
2022/06/14 11:20:10;;;;;;;5.40;1.88;;;21.90;55.20;;;;;;5046768;28;20079;-65
2022/06/14 11:23:04;;;;;;;4.10;1.75;;;21.80;55.30;;;;;;5048065;28;20379;-65
2022/06/14 11:25:44;;;;;;;6.95;2.25;;;21.70;55.30;;;;;;5044722;28;20040;-65
2022/06/14 11:28:19;;;;;;;3.08;1.50;;;21.70;55.30;;;;;;5047152;28;20020;-65
2022/06/14 11:31:08;;;;;;;7.97;2.25;;;21.80;56.40;;;;;;5046419;28;20751;-65
2022/06/14 11:34:00;;;;;;;3.33;1.67;;;21.80;56.10;;;;;;5046546;28;20033;-65
2022/06/14 11:36:58;;;;;;;8.52;1.92;;;21.70;55.60;;;;;;5052443;28;20131;-65
2022/06/14 11:39:43;;;;;;;5.15;1.85;;;21.80;56.20;;;;;;5046823;28;20021;-65
2022/06/14 11:42:40;;;;;;;5.40;1.88;;;21.90;56.00;;;;;;5048239;28;20033;-65
2022/06/14 11:45:31;;;;;;;6.30;1.63;;;21.90;54.70;;;;;;5046974;28;20032;-65
2022/06/14 11:48:19;;;;;;;4.40;1.95;;;21.80;55.30;;;;;;5047638;28;20088;-66
2022/06/14 11:50:52;;;;;;;6.30;1.77;;;21.80;55.30;;;;;;5046961;28;20127;-65
2022/06/14 11:53:33;;;;;;;6.45;1.80;;;21.70;55.20;;;;;;5046740;28;20070;-66
2022/06/14 11:56:11;;;;;;;6.75;1.80;;;21.70;55.10;;;;;;5046361;28;20128;-65
2022/06/14 11:59:00;;;;;;;3.58;1.60;;;21.60;54.40;;;;;;5047349;28;20025;-65
2022/06/14 12:01:34;;;;;;;4.47;1.90;;;21.60;54.90;;;;;;5049500;28;20025;-65
2022/06/14 12:04:34;;;;;;;3.80;1.85;;;21.60;54.60;;;;;;5049745;28;20017;-65
2022/06/14 12:07:13;;;;;;;5.15;1.80;;;21.60;54.60;;;;;;5051845;28;20538;-65
2022/06/14 12:10:11;;;;;;;10.23;4.10;;;21.70;54.70;;;;;;5052954;28;20032;-65
2022/06/14 12:12:56;;;;;;;4.50;2.50;;;21.80;54.50;;;;;;5054231;28;20083;-65
2022/06/14 12:15:51;;;;;;;4.28;1.80;;;21.90;55.00;;;;;;5053293;28;20975;-68
2022/06/14 12:18:18;;;;;;;;;;;21.90;55.00;;;;;;5054201;28;20037;-66
2022/06/14 12:21:10;;;;;;;4.93;1.83;;;21.90;54.50;;;;;;5053722;28;19966;-65
2022/06/14 12:23:43;;;;;;;6.38;1.98;;;21.90;54.70;;;;;;5052834;28;20029;-67
2022/06/14 12:26:41;;;;;;;5.00;2.50;;;22.00;54.60;;;;;;5058922;28;20036;-64
2022/06/14 12:29:25;;;;;;;4.15;1.90;;;21.90;53.90;;;;;;5045190;28;20107;-65
2022/06/14 12:32:00;;;;;;;6.38;1.67;;;21.90;54.60;;;;;;5053754;28;20476;-66
2022/06/14 12:34:36;;;;;;;;;;;22.00;54.20;;;;;;5053930;28;20035;-65
2022/06/14 12:37:26;;;;;;;3.38;1.50;;;21.90;53.20;;;;;;5053137;28;19924;-65
2022/06/14 12:40:09;;;;;;;4.28;1.63;;;21.70;54.00;;;;;;5053618;28;20111;-66
2022/06/14 12:42:48;;;;;;;2.65;1.50;;;21.90;53.90;;;;;;5053089;28;20131;-65
2022/06/14 12:45:53;;;;;;;4.97;1.70;;;21.90;53.50;;;;;;5053216;28;20024;-65
2022/06/14 12:48:26;;;;;;;5.75;2.10;;;22.10;54.00;;;;;;5051291;28;20071;-65
2022/06/14 12:50:59;;;;;;;3.38;1.70;;;22.20;54.20;;;;;;5053343;28;20120;-65
2022/06/14 12:53:48;;;;;;;8.27;1.85;;;22.20;53.70;;;;;;5056284;28;20041;-65
2022/06/14 12:56:20;;;;;;;5.07;1.50;;;22.40;53.20;;;;;;5053540;28;20045;-66
2022/06/14 12:58:57;;;;;;;4.43;1.60;;;22.50;53.00;;;;;;5055264;28;20238;-65
2022/06/14 13:01:36;;;;;;;3.30;1.80;;;22.60;53.10;;;;;;5052610;28;20064;-65
2022/06/14 13:04:18;;;;;;;3.90;1.63;;;22.70;53.20;;;;;;5053266;28;20120;-68
2022/06/14 13:07:13;;;;;;;4.88;1.73;;;22.80;53.00;;;;;;5053410;28;20039;-65
2022/06/14 13:10:09;;;;;;;5.97;2.28;;;22.90;52.80;;;;;;5051462;28;20074;-65
2022/06/14 13:13:03;;;;;;;5.15;1.70;;;22.80;52.00;;;;;;5052480;28;20056;-65
2022/06/14 13:15:32;;;;;;;3.45;2.05;;;22.80;52.10;;;;;;5052973;28;20080;-66
2022/06/14 13:18:03;;;;;;;4.18;1.70;;;22.80;52.20;;;;;;5051653;28;20431;-65
2022/06/14 13:20:50;;;;;;;3.67;1.55;;;22.90;51.60;;;;;;5052298;28;20325;-66
2022/06/14 13:23:45;;;;;;;3.28;1.60;;;22.90;52.00;;;;;;5053161;28;20122;-66
2022/06/14 13:26:22;;;;;;;3.22;1.45;;;23.00;51.90;;;;;;5057461;28;20032;-66
2022/06/14 13:29:18;;;;;;;4.53;1.60;;;23.00;51.60;;;;;;5053183;28;20107;-66
2022/06/14 13:32:21;;;;;;;7.15;1.80;;;23.20;51.80;;;;;;5052202;28;20139;-65
2022/06/14 13:35:39;;;;;;;3.42;1.13;;;23.30;50.70;;;;;;5052278;28;20032;-64
2022/06/14 13:38:07;;;;;;;5.60;1.30;;;23.10;50.90;;;;;;5052875;28;20055;-65
2022/06/14 13:40:44;;;;;;;4.03;1.40;;;23.10;50.80;;;;;;5052884;28;20024;-67
2022/06/14 13:43:19;;;;;;;3.42;1.30;;;23.20;51.00;;;;;;5053709;28;20029;-66
2022/06/14 13:45:50;;;;;;;4.38;1.90;;;23.30;50.70;;;;;;5052300;28;20039;-67
2022/06/14 13:48:45;;;;;;;2.88;1.55;;;23.40;50.10;;;;;;5054360;28;20602;-65
2022/06/14 13:51:31;;;;;;;5.75;1.85;;;23.40;50.50;;;;;;5052150;28;20093;-66
2022/06/14 13:54:27;;;;;;;3.92;1.52;;;23.40;49.50;;;;;;5053898;28;20425;-65
2022/06/14 13:57:02;;;;;;;3.67;1.70;;;23.60;50.10;;;;;;5051602;28;20601;-66
2022/06/14 13:59:33;;;;;;;4.63;1.30;;;23.70;50.10;;;;;;5052400;28;20689;-65
2022/06/14 14:02:17;;;;;;;3.00;1.42;;;23.80;49.90;;;;;;5053630;28;20040;-67
2022/06/14 14:05:02;;;;;;;3.60;1.40;;;23.80;49.60;;;;;;5051469;28;20111;-65
2022/06/14 14:07:36;;;;;;;3.45;1.55;;;23.90;49.10;;;;;;5051983;28;20127;-66